createdAt,value
2017-07-29T00:01:33.987Z,36.03
2017-07-29T00:04:01.655Z,50.57
2017-07-29T00:06:29.163Z,38.37
2017-07-29T00:08:56.662Z,42.60
2017-07-29T00:11:24.193Z,44.50
2017-07-29T00:13:52.093Z,44.00
2017-07-29T00:16:19.602Z,42.03
2017-07-29T00:18:47.143Z,64.70
2017-07-29T00:21:14.653Z,60.53
2017-07-29T00:23:42.559Z,41.43
2017-07-29T00:26:10.094Z,56.47
2017-07-29T00:28:37.622Z,53.70
2017-07-29T00:31:05.136Z,52.93
2017-07-29T00:33:32.676Z,48.50
2017-07-29T00:36:00.187Z,37.20
2017-07-29T00:38:27.715Z,35.40
2017-07-29T00:40:55.246Z,44.87
2017-07-29T00:43:23.145Z,36.60
2017-07-29T00:45:50.671Z,32.27
2017-07-29T00:48:18.599Z,33.63
2017-07-29T00:50:46.107Z,29.33
2017-07-29T00:53:13.610Z,38.63
2017-07-29T00:55:41.136Z,32.07
2017-07-29T00:58:08.678Z,32.03
2017-07-29T01:00:36.582Z,34.83
2017-07-29T01:03:05.074Z,30.63
2017-07-29T01:05:32.582Z,37.33
2017-07-29T01:08:00.087Z,30.40
2017-07-29T01:10:27.609Z,34.37
2017-07-29T01:12:55.516Z,32.60
2017-07-29T01:15:23.023Z,31.07
2017-07-29T01:17:50.556Z,41.07
2017-07-29T01:20:18.088Z,39.33
2017-07-29T01:22:45.600Z,31.83
2017-07-29T01:25:13.139Z,31.30
2017-07-29T01:27:40.642Z,31.43
2017-07-29T01:30:08.550Z,23.90
2017-07-29T01:32:36.086Z,28.63
2017-07-29T01:35:03.594Z,37.83
2017-07-29T01:37:31.108Z,31.47
2017-07-29T01:39:58.659Z,27.67
2017-07-29T01:42:26.166Z,27.93
2017-07-29T01:44:53.709Z,30.20
2017-07-29T01:47:21.243Z,32.10
2017-07-29T01:49:48.754Z,28.83
2017-07-29T01:52:16.286Z,28.10
2017-07-29T01:54:43.799Z,24.43
2017-07-29T01:57:11.702Z,35.30
2017-07-29T01:59:39.247Z,39.50
2017-07-29T02:02:07.154Z,26.00
2017-07-29T02:04:34.654Z,36.60
2017-07-29T02:07:02.182Z,30.30
2017-07-29T02:09:29.682Z,24.90
2017-07-29T02:11:57.587Z,29.67
2017-07-29T02:14:25.123Z,34.63
2017-07-29T02:16:53.020Z,37.90
2017-07-29T02:19:20.523Z,35.67
2017-07-29T02:21:48.055Z,29.00
2017-07-29T02:24:15.563Z,28.57
2017-07-29T02:26:43.472Z,32.00
2017-07-29T02:29:11.002Z,30.80
2017-07-29T02:31:38.510Z,24.70
2017-07-29T02:34:06.019Z,26.33
2017-07-29T02:36:33.950Z,26.97
2017-07-29T02:39:01.462Z,29.80
2017-07-29T02:41:28.975Z,23.37
2017-07-29T02:43:56.514Z,31.97
2017-07-29T02:46:24.025Z,23.70
2017-07-29T02:48:51.934Z,25.33
2017-07-29T02:51:19.467Z,27.10
2017-07-29T02:53:47.542Z,24.93
2017-07-29T02:56:15.046Z,23.00
2017-07-29T02:58:42.570Z,21.47
2017-07-29T03:01:10.083Z,28.70
2017-07-29T03:03:37.591Z,30.50
2017-07-29T03:06:05.117Z,32.07
2017-07-29T03:08:32.632Z,26.93
2017-07-29T03:11:00.135Z,28.30
2017-07-29T03:13:28.066Z,29.03
2017-07-29T03:15:55.579Z,25.90
2017-07-29T03:18:23.098Z,26.97
2017-07-29T03:20:50.636Z,29.10
2017-07-29T03:23:18.142Z,34.67
2017-07-29T03:25:45.649Z,32.13
2017-07-29T03:28:13.177Z,22.93
2017-07-29T03:30:41.074Z,34.20
2017-07-29T03:33:08.582Z,31.93
2017-07-29T03:35:36.123Z,30.20
2017-07-29T03:38:03.638Z,29.50
2017-07-29T03:40:31.155Z,32.77
2017-07-29T03:42:58.695Z,22.37
2017-07-29T03:45:26.206Z,35.50
2017-07-29T03:47:53.719Z,26.90
2017-07-29T03:50:21.260Z,33.27
2017-07-29T03:52:48.770Z,31.40
2017-07-29T03:55:16.278Z,31.23
2017-07-29T03:57:43.817Z,22.63
2017-07-29T04:00:11.318Z,25.03
2017-07-29T04:02:38.827Z,25.87
2017-07-29T04:05:06.755Z,26.80
2017-07-29T04:07:34.266Z,36.60
2017-07-29T04:10:01.774Z,29.97
2017-07-29T04:12:29.308Z,30.17
2017-07-29T04:14:56.819Z,33.23
2017-07-29T04:17:24.334Z,29.53
2017-07-29T04:19:51.892Z,36.03
2017-07-29T04:22:19.398Z,34.63
2017-07-29T04:24:46.908Z,26.00
2017-07-29T04:27:14.439Z,35.63
2017-07-29T04:29:42.347Z,24.93
2017-07-29T04:32:09.858Z,29.20
2017-07-29T04:34:37.402Z,30.27
2017-07-29T04:37:04.919Z,46.80
2017-07-29T04:39:32.422Z,67.47
2017-07-29T04:41:59.954Z,39.90
2017-07-29T04:44:27.467Z,35.83
2017-07-29T04:46:54.978Z,21.07
2017-07-29T04:49:22.514Z,25.10
2017-07-29T04:51:50.022Z,24.00
2017-07-29T04:54:17.535Z,27.70
2017-07-29T04:56:45.070Z,26.10
2017-07-29T04:59:12.982Z,29.60
2017-07-29T05:01:40.499Z,29.53
2017-07-29T05:04:08.047Z,28.67
2017-07-29T05:06:35.953Z,33.30
2017-07-29T05:09:03.461Z,31.17
2017-07-29T05:11:31.003Z,19.50
2017-07-29T05:13:58.514Z,18.80
2017-07-29T05:16:26.023Z,19.53
2017-07-29T05:18:53.567Z,17.57
2017-07-29T05:21:21.065Z,21.70
2017-07-29T05:23:48.572Z,17.80
2017-07-29T05:26:16.111Z,20.40
2017-07-29T05:28:44.007Z,24.20
2017-07-29T05:31:11.520Z,15.43
2017-07-29T05:33:39.058Z,19.37
2017-07-29T05:36:06.562Z,19.97
2017-07-29T05:38:34.458Z,19.10
2017-07-29T05:41:02.005Z,19.43
2017-07-29T05:43:29.510Z,17.53
2017-07-29T05:45:57.015Z,17.97
2017-07-29T05:48:24.559Z,15.50
2017-07-29T05:50:52.465Z,26.30
2017-07-29T05:53:19.971Z,20.00
2017-07-29T05:55:47.603Z,19.60
2017-07-29T05:58:15.118Z,22.70
2017-07-29T06:00:43.050Z,14.83
2017-07-29T06:03:10.555Z,19.83
2017-07-29T06:05:38.063Z,10.20
2017-07-29T06:08:05.597Z,11.50
2017-07-29T06:10:33.098Z,12.80
2017-07-29T06:13:00.602Z,16.33
2017-07-29T06:15:28.143Z,12.60
2017-07-29T06:17:56.043Z,12.27
2017-07-29T06:20:23.546Z,20.63
2017-07-29T06:22:51.079Z,21.53
2017-07-29T06:25:18.585Z,15.00
2017-07-29T06:27:46.506Z,12.27
2017-07-29T06:30:14.026Z,14.70
2017-07-29T06:32:42.027Z,27.53
2017-07-29T06:35:09.530Z,13.73
2017-07-29T06:37:37.058Z,15.43
2017-07-29T06:40:04.559Z,13.23
2017-07-29T06:42:32.065Z,11.40
2017-07-29T06:44:59.591Z,9.80
2017-07-29T06:47:27.490Z,18.40
2017-07-29T06:49:54.998Z,11.80
2017-07-29T06:52:22.529Z,7.73
2017-07-29T06:54:50.043Z,14.20
2017-07-29T06:57:17.944Z,13.00
2017-07-29T06:59:45.470Z,9.23
2017-07-29T07:02:13.375Z,10.90
2017-07-29T07:04:40.883Z,11.67
2017-07-29T07:07:08.422Z,11.70
2017-07-29T07:09:35.942Z,14.00
2017-07-29T07:12:03.450Z,14.43
2017-07-29T07:14:31.000Z,13.60
2017-07-29T07:16:58.506Z,12.67
2017-07-29T07:19:26.851Z,17.53
2017-07-29T07:21:54.383Z,9.90
2017-07-29T07:24:21.886Z,7.47
2017-07-29T07:26:49.393Z,11.30
2017-07-29T07:29:16.948Z,13.07
2017-07-29T07:31:44.451Z,16.40
2017-07-29T07:34:11.957Z,12.37
2017-07-29T07:36:39.487Z,9.57
2017-07-29T07:39:06.994Z,14.60
2017-07-29T07:41:34.498Z,15.33
2017-07-29T07:44:02.034Z,9.20
2017-07-29T07:46:29.543Z,10.27
2017-07-29T07:48:57.467Z,13.77
2017-07-29T07:51:25.000Z,11.60
2017-07-29T07:53:52.506Z,14.40
2017-07-29T07:56:20.023Z,19.93
2017-07-29T07:58:47.555Z,16.33
2017-07-29T08:01:15.455Z,16.27
2017-07-29T08:03:42.959Z,10.87
2017-07-29T08:06:10.482Z,7.00
2017-07-29T08:08:37.984Z,10.77
2017-07-29T08:11:05.491Z,7.50
2017-07-29T08:13:33.014Z,11.00
2017-07-29T08:16:00.555Z,13.53
2017-07-29T08:18:28.071Z,13.70
2017-07-29T08:20:55.574Z,10.77
2017-07-29T08:23:23.110Z,26.03
2017-07-29T08:25:50.614Z,10.17
2017-07-29T08:28:18.506Z,9.57
2017-07-29T08:30:46.030Z,8.67
2017-07-29T08:33:13.542Z,8.87
2017-07-29T08:35:41.046Z,11.70
2017-07-29T08:38:08.578Z,12.87
2017-07-29T08:40:36.086Z,6.73
2017-07-29T08:43:03.983Z,17.13
2017-07-29T08:45:31.602Z,9.37
2017-07-29T08:47:59.519Z,12.07
2017-07-29T08:50:27.014Z,7.60
2017-07-29T08:52:54.816Z,8.40
2017-07-29T08:55:22.714Z,7.63
2017-07-29T08:57:50.215Z,11.43
2017-07-29T09:00:17.739Z,7.60
2017-07-29T09:02:45.263Z,11.10
2017-07-29T09:05:12.771Z,14.90
2017-07-29T09:07:40.302Z,12.03
2017-07-29T09:10:07.810Z,7.87
2017-07-29T09:12:35.311Z,8.90
2017-07-29T09:15:02.838Z,8.23
2017-07-29T09:17:30.342Z,19.83
2017-07-29T09:19:57.854Z,16.00
2017-07-29T09:22:25.378Z,6.67
2017-07-29T09:24:52.873Z,13.67
2017-07-29T09:27:20.375Z,8.60
2017-07-29T09:29:47.903Z,8.73
2017-07-29T09:32:15.418Z,11.63
2017-07-29T09:34:42.913Z,9.73
2017-07-29T09:37:10.442Z,11.13
2017-07-29T09:39:37.942Z,8.67
2017-07-29T09:42:05.452Z,15.83
2017-07-29T09:44:32.982Z,8.20
2017-07-29T09:47:00.490Z,10.90
2017-07-29T09:49:27.989Z,8.10
2017-07-29T09:51:55.482Z,6.43
2017-07-29T09:54:23.008Z,9.30
2017-07-29T09:56:50.911Z,13.07
2017-07-29T09:59:18.434Z,8.30
2017-07-29T10:01:46.350Z,8.60
2017-07-29T10:04:13.855Z,8.47
2017-07-29T10:06:41.863Z,13.53
2017-07-29T10:09:09.395Z,8.60
2017-07-29T10:11:36.907Z,9.33
2017-07-29T10:14:04.434Z,7.97
2017-07-29T10:16:32.334Z,11.93
2017-07-29T10:18:59.894Z,10.90
2017-07-29T10:21:27.420Z,7.70
2017-07-29T10:23:55.334Z,12.50
2017-07-29T10:26:22.843Z,12.83
2017-07-29T10:28:50.426Z,10.17
2017-07-29T10:31:17.953Z,12.37
2017-07-29T10:33:45.483Z,15.53
2017-07-29T10:36:13.026Z,10.10
2017-07-29T10:38:40.550Z,6.70
2017-07-29T10:41:08.470Z,14.13
2017-07-29T10:43:35.974Z,28.77
2017-07-29T10:46:03.878Z,6.83
2017-07-29T10:48:31.430Z,10.27
2017-07-29T10:50:58.942Z,11.03
2017-07-29T10:53:26.466Z,11.47
2017-07-29T10:55:53.994Z,17.50
2017-07-29T10:58:21.892Z,14.47
2017-07-29T11:00:49.400Z,12.10
2017-07-29T11:03:16.938Z,8.53
2017-07-29T11:05:44.438Z,10.23
2017-07-29T11:08:12.423Z,12.80
2017-07-29T11:10:39.970Z,12.97
2017-07-29T11:13:07.873Z,7.23
2017-07-29T11:15:35.674Z,8.27
2017-07-29T11:18:03.169Z,12.27
2017-07-29T11:20:30.709Z,11.37
2017-07-29T11:22:58.233Z,12.00
2017-07-29T11:25:25.762Z,10.20
2017-07-29T11:27:53.262Z,11.60
2017-07-29T11:30:20.771Z,14.93
2017-07-29T11:32:48.306Z,10.83
2017-07-29T11:35:15.816Z,10.50
2017-07-29T11:37:43.314Z,9.30
2017-07-29T11:40:10.847Z,10.53
2017-07-29T11:42:38.351Z,6.60
2017-07-29T11:45:05.903Z,17.27
2017-07-29T11:47:33.499Z,9.53
2017-07-29T11:50:01.002Z,13.23
2017-07-29T11:52:28.510Z,25.20
2017-07-29T11:54:56.438Z,10.80
2017-07-29T11:57:23.943Z,8.47
2017-07-29T11:59:51.468Z,9.70
2017-07-29T12:02:19.026Z,9.30
2017-07-29T12:04:46.527Z,8.33
2017-07-29T12:07:14.050Z,14.03
2017-07-29T12:09:41.618Z,11.80
2017-07-29T12:12:09.132Z,9.40
2017-07-29T12:14:36.635Z,10.83
2017-07-29T12:17:04.182Z,9.60
2017-07-29T12:19:31.698Z,7.73
2017-07-29T12:21:59.211Z,12.63
2017-07-29T12:24:26.752Z,14.03
2017-07-29T12:26:54.253Z,8.83
2017-07-29T12:29:22.166Z,7.03
2017-07-29T12:31:49.699Z,12.50
2017-07-29T12:34:17.211Z,11.07
2017-07-29T12:36:44.710Z,8.90
2017-07-29T12:39:12.635Z,10.93
2017-07-29T12:41:40.139Z,10.13
2017-07-29T12:44:07.643Z,8.17
2017-07-29T12:46:35.162Z,9.33
2017-07-29T12:49:03.164Z,8.40
2017-07-29T12:51:30.670Z,8.40
2017-07-29T12:53:58.198Z,9.67
2017-07-29T12:56:25.716Z,6.50
2017-07-29T12:58:53.612Z,8.10
2017-07-29T13:01:21.138Z,10.80
2017-07-29T13:03:49.040Z,12.87
2017-07-29T13:06:16.566Z,8.70
2017-07-29T13:08:44.070Z,6.50
2017-07-29T13:11:11.606Z,15.90
2017-07-29T13:13:39.115Z,7.77
2017-07-29T13:16:06.654Z,7.17
2017-07-29T13:18:34.154Z,7.60
2017-07-29T13:21:01.655Z,7.30
2017-07-29T13:23:29.187Z,10.30
2017-07-29T13:25:57.095Z,10.67
2017-07-29T13:28:24.635Z,5.80
2017-07-29T13:30:52.158Z,9.47
2017-07-29T13:33:19.666Z,8.20
2017-07-29T13:35:47.177Z,13.83
2017-07-29T13:38:14.706Z,9.87
2017-07-29T13:40:42.226Z,14.70
2017-07-29T13:43:09.752Z,13.27
2017-07-29T13:45:37.282Z,9.30
2017-07-29T13:48:04.791Z,10.00
2017-07-29T13:50:32.305Z,6.93
2017-07-29T13:52:59.835Z,8.90
2017-07-29T13:55:27.348Z,9.80
2017-07-29T13:57:54.846Z,8.73
2017-07-29T14:00:22.379Z,8.43
2017-07-29T14:02:49.903Z,6.70
2017-07-29T14:05:17.410Z,12.07
2017-07-29T14:07:45.410Z,10.53
2017-07-29T14:10:12.926Z,8.70
2017-07-29T14:12:40.431Z,11.67
2017-07-29T14:15:07.972Z,9.03
2017-07-29T14:17:35.874Z,8.97
2017-07-29T14:20:03.377Z,9.40
2017-07-29T14:22:31.327Z,9.33
2017-07-29T14:24:58.831Z,8.27
2017-07-29T14:27:26.730Z,10.00
2017-07-29T14:29:54.308Z,8.20
2017-07-29T14:32:21.821Z,5.70
2017-07-29T14:34:49.730Z,10.40
2017-07-29T14:37:17.263Z,10.23
2017-07-29T14:39:44.795Z,6.03
2017-07-29T14:42:12.303Z,6.50
2017-07-29T14:44:39.838Z,10.60
2017-07-29T14:47:07.339Z,11.07
2017-07-29T14:49:34.850Z,6.80
2017-07-29T14:52:02.778Z,6.73
2017-07-29T14:54:30.291Z,11.00
2017-07-29T14:56:57.855Z,9.23
2017-07-29T14:59:25.411Z,9.23
2017-07-29T15:01:52.919Z,8.93
2017-07-29T15:04:20.423Z,7.80
2017-07-29T15:06:48.019Z,7.13
2017-07-29T15:09:15.573Z,5.83
2017-07-29T15:11:43.082Z,8.60
2017-07-29T15:14:10.633Z,5.97
2017-07-29T15:16:38.134Z,8.87
2017-07-29T15:19:05.643Z,6.30
2017-07-29T15:21:33.175Z,9.83
2017-07-29T15:24:00.683Z,7.63
2017-07-29T15:26:28.194Z,6.63
2017-07-29T15:28:55.728Z,7.63
2017-07-29T15:31:23.231Z,8.10
2017-07-29T15:33:50.738Z,7.60
2017-07-29T15:36:18.662Z,6.47
2017-07-29T15:38:46.171Z,10.37
2017-07-29T15:41:13.675Z,9.20
2017-07-29T15:43:41.206Z,22.33
2017-07-29T15:46:08.714Z,16.47
2017-07-29T15:48:36.210Z,9.53
2017-07-29T15:51:04.144Z,5.80
2017-07-29T15:53:31.668Z,6.87
2017-07-29T15:55:59.175Z,9.90
2017-07-29T15:58:26.718Z,11.17
2017-07-29T16:00:54.218Z,8.50
2017-07-29T16:03:21.722Z,7.87
2017-07-29T16:05:49.250Z,5.97
2017-07-29T16:08:16.759Z,6.13
2017-07-29T16:10:44.258Z,6.07
2017-07-29T16:13:11.794Z,10.70
2017-07-29T16:15:39.326Z,8.47
2017-07-29T16:18:06.845Z,7.30
2017-07-29T16:20:34.383Z,8.60
2017-07-29T16:23:01.915Z,5.50
2017-07-29T16:25:29.418Z,5.47
2017-07-29T16:27:56.972Z,6.50
2017-07-29T16:30:24.484Z,6.90
2017-07-29T16:32:51.990Z,11.23
2017-07-29T16:35:19.534Z,17.30
2017-07-29T16:37:47.002Z,6.13
2017-07-29T16:40:14.544Z,6.80
2017-07-29T16:42:42.078Z,18.33
2017-07-29T16:45:09.595Z,7.03
2017-07-29T16:47:37.502Z,8.20
2017-07-29T16:50:05.036Z,8.60
2017-07-29T16:52:32.547Z,7.37
2017-07-29T16:55:00.051Z,9.13
2017-07-29T16:57:27.583Z,7.03
2017-07-29T16:59:55.086Z,5.27
2017-07-29T17:02:22.585Z,7.13
2017-07-29T17:04:50.111Z,11.33
2017-07-29T17:07:17.618Z,9.97
2017-07-29T17:09:45.128Z,11.37
2017-07-29T17:12:12.671Z,9.63
2017-07-29T17:14:40.181Z,11.50
2017-07-29T17:17:07.700Z,13.40
2017-07-29T17:19:35.264Z,19.70
2017-07-29T17:22:02.779Z,10.83
2017-07-29T17:24:30.302Z,14.63
2017-07-29T17:26:57.888Z,14.70
2017-07-29T17:29:25.394Z,10.10
2017-07-29T17:31:53.303Z,5.77
2017-07-29T17:34:20.839Z,8.27
2017-07-29T17:36:48.352Z,14.00
2017-07-29T17:39:15.858Z,8.20
2017-07-29T17:41:43.382Z,8.50
2017-07-29T17:44:10.895Z,10.00
2017-07-29T17:46:38.402Z,13.10
2017-07-29T17:49:05.935Z,13.50
2017-07-29T17:51:33.451Z,16.70
2017-07-29T17:54:00.959Z,13.33
2017-07-29T17:56:28.498Z,14.10
2017-07-29T17:58:56.012Z,21.90
2017-07-29T18:01:23.523Z,11.40
2017-07-29T18:03:51.060Z,14.50
2017-07-29T18:06:18.578Z,16.13
2017-07-29T18:08:46.078Z,14.07
2017-07-29T18:11:13.603Z,9.10
2017-07-29T18:13:41.107Z,10.50
2017-07-29T18:16:08.605Z,9.53
2017-07-29T18:18:36.133Z,6.80
2017-07-29T18:21:03.639Z,12.33
2017-07-29T18:23:31.139Z,6.83
2017-07-29T18:25:58.666Z,8.40
2017-07-29T18:28:26.172Z,5.83
2017-07-29T18:30:53.682Z,14.40
2017-07-29T18:33:21.214Z,13.93
2017-07-29T18:35:48.830Z,6.67
2017-07-29T18:38:16.343Z,10.37
2017-07-29T18:40:43.871Z,10.43
2017-07-29T18:43:11.379Z,11.73
2017-07-29T18:45:38.878Z,9.97
2017-07-29T18:48:06.404Z,9.90
2017-07-29T18:50:33.910Z,7.30
2017-07-29T18:53:01.414Z,10.97
2017-07-29T18:55:28.950Z,17.30
2017-07-29T18:57:56.450Z,9.33
2017-07-29T19:00:24.346Z,8.10
2017-07-29T19:02:51.882Z,17.23
2017-07-29T19:05:19.394Z,17.17
2017-07-29T19:07:46.906Z,26.30
2017-07-29T19:10:14.834Z,12.57
2017-07-29T19:12:42.376Z,10.83
2017-07-29T19:15:09.936Z,9.00
2017-07-29T19:17:37.471Z,14.30
2017-07-29T19:20:04.979Z,7.37
2017-07-29T19:22:32.474Z,9.93
2017-07-29T19:25:00.430Z,16.33
2017-07-29T19:27:27.935Z,16.37
2017-07-29T19:29:55.446Z,21.53
2017-07-29T19:32:22.974Z,14.30
2017-07-29T19:34:50.483Z,35.47
2017-07-29T19:37:18.387Z,25.47
2017-07-29T19:39:45.914Z,41.60
2017-07-29T19:42:13.822Z,18.40
2017-07-29T19:44:41.335Z,12.17
2017-07-29T19:47:08.866Z,9.40
2017-07-29T19:49:36.375Z,11.43
2017-07-29T19:52:04.269Z,14.50
2017-07-29T19:54:31.874Z,18.83
2017-07-29T19:56:59.382Z,20.17
2017-07-29T19:59:26.903Z,17.77
2017-07-29T20:01:54.445Z,12.20
2017-07-29T20:04:21.947Z,12.77
2017-07-29T20:06:49.454Z,14.00
2017-07-29T20:09:16.979Z,16.00
2017-07-29T20:11:44.491Z,20.23
2017-07-29T20:14:12.010Z,32.90
2017-07-29T20:16:39.551Z,27.37
2017-07-29T20:19:07.054Z,16.33
2017-07-29T20:21:34.570Z,20.67
2017-07-29T20:24:02.111Z,17.90
2017-07-29T20:26:30.021Z,29.10
2017-07-29T20:28:57.534Z,12.70
2017-07-29T20:31:25.070Z,16.90
2017-07-29T20:33:52.583Z,39.67
2017-07-29T20:36:20.095Z,14.90
2017-07-29T20:38:47.639Z,17.50
2017-07-29T20:41:15.147Z,21.83
2017-07-29T20:43:43.055Z,15.67
2017-07-29T20:46:10.591Z,13.80
2017-07-29T20:48:38.102Z,18.30
2017-07-29T20:51:05.602Z,15.20
2017-07-29T20:53:33.530Z,17.67
2017-07-29T20:56:01.047Z,23.17
2017-07-29T20:58:28.563Z,16.80
2017-07-29T21:00:56.095Z,18.60
2017-07-29T21:03:23.607Z,19.83
2017-07-29T21:05:51.510Z,17.07
2017-07-29T21:08:19.043Z,32.70
2017-07-29T21:10:46.947Z,23.43
2017-07-29T21:13:14.459Z,20.60
2017-07-29T21:15:42.003Z,23.90
2017-07-29T21:18:09.510Z,13.10
2017-07-29T21:20:37.025Z,27.43
2017-07-29T21:23:04.559Z,18.50
2017-07-29T21:25:32.067Z,30.90
2017-07-29T21:27:59.968Z,19.50
2017-07-29T21:30:27.498Z,25.27
2017-07-29T21:32:55.413Z,21.50
2017-07-29T21:35:22.930Z,30.93
2017-07-29T21:37:50.867Z,25.00
2017-07-29T21:40:18.379Z,27.27
2017-07-29T21:42:45.886Z,23.40
2017-07-29T21:45:13.431Z,19.60
2017-07-29T21:47:40.934Z,18.17
2017-07-29T21:50:08.834Z,30.40
2017-07-29T21:52:36.366Z,19.93
2017-07-29T21:55:04.281Z,14.80
2017-07-29T21:57:31.790Z,23.87
2017-07-29T21:59:59.735Z,17.47
2017-07-29T22:02:27.300Z,15.47
2017-07-29T22:04:54.855Z,23.33
2017-07-29T22:07:23.399Z,21.33
2017-07-29T22:09:51.090Z,13.67
2017-07-29T22:12:18.794Z,20.43
2017-07-29T22:14:46.394Z,19.43
2017-07-29T22:17:14.456Z,12.40
2017-07-29T22:19:42.017Z,21.33
2017-07-29T22:22:09.550Z,13.67
2017-07-29T22:24:37.454Z,22.30
2017-07-29T22:27:04.962Z,16.33
2017-07-29T22:29:32.493Z,16.33
2017-07-29T22:32:00.008Z,29.77
2017-07-29T22:34:27.914Z,14.20
2017-07-29T22:36:55.452Z,14.43
2017-07-29T22:39:22.966Z,20.90
2017-07-29T22:41:50.478Z,15.47
2017-07-29T22:44:18.019Z,16.00
2017-07-29T22:46:45.923Z,17.13
2017-07-29T22:49:13.426Z,15.23
2017-07-29T22:51:40.950Z,21.90
2017-07-29T22:54:08.463Z,16.83
2017-07-29T22:56:36.379Z,20.83
2017-07-29T22:59:03.929Z,19.60
2017-07-29T23:01:31.438Z,21.83
2017-07-29T23:03:58.951Z,23.00
2017-07-29T23:06:26.631Z,20.73
2017-07-29T23:08:54.139Z,27.93
2017-07-29T23:11:22.047Z,18.93
2017-07-29T23:13:49.576Z,24.10
2017-07-29T23:16:17.047Z,29.50
2017-07-29T23:18:44.580Z,33.93
2017-07-29T23:21:12.118Z,24.03
2017-07-29T23:23:39.622Z,29.43
2017-07-29T23:26:07.140Z,21.57
2017-07-29T23:28:34.687Z,22.03
2017-07-29T23:31:02.199Z,17.30
2017-07-29T23:33:29.702Z,20.33
2017-07-29T23:35:57.267Z,23.93
2017-07-29T23:38:24.770Z,21.93
2017-07-29T23:40:52.275Z,20.30
2017-07-29T23:43:19.821Z,23.30
2017-07-29T23:45:47.326Z,21.00
2017-07-29T23:48:14.836Z,16.03
2017-07-29T23:50:42.370Z,15.87
2017-07-29T23:53:09.874Z,31.73
2017-07-29T23:55:37.384Z,16.60
2017-07-29T23:58:05.314Z,21.53
